Time;durP1;ratioP1;P1;durP2;ratioP2;P2;SDS_P1;SDS_P2;PMS_P1;PMS_P2;Temp;Humidity;BMP_temperature;BMP_pressure;BME280_temperature;BME280_humidity;BME280_pressure;Samples;Min_cycle;Max_cycle;Signal;HPM_P1;HPM_P2
2022/03/27 00:00:31;;;;;;;;;;;8.30;99.90;;;;;;5036668;28;19944;-75
2022/03/27 00:02:57;;;;;;;;;;;8.30;99.90;;;;;;5055077;28;20043;-76
2022/03/27 00:05:22;;;;;;;;;;;8.30;99.90;;;;;;5036485;28;19920;-75
2022/03/27 00:07:48;;;;;;;;;;;8.30;99.90;;;;;;5053908;28;19919;-75
2022/03/27 00:10:14;;;;;;;;;;;8.20;99.90;;;;;;5055730;28;19923;-75
2022/03/27 00:12:39;;;;;;;;;;;8.20;99.90;;;;;;5055187;28;19919;-74
2022/03/27 00:15:05;;;;;;;;;;;8.10;99.90;;;;;;5037808;28;19913;-75
2022/03/27 00:17:33;;;;;;;;;;;8.10;99.90;;;;;;5048961;28;19920;-79
2022/03/27 00:20:03;;;;;;;;;;;8.10;99.90;;;;;;5055428;28;20283;-75
2022/03/27 00:22:28;;;;;;;;;;;8.00;99.90;;;;;;5054538;28;19917;-76
2022/03/27 00:24:55;;;;;;;;;;;8.00;99.90;;;;;;5054960;28;19913;-75
2022/03/27 00:27:20;;;;;;;;;;;8.00;99.90;;;;;;5050139;28;19913;-75
2022/03/27 00:29:46;;;;;;;;;;;8.10;99.90;;;;;;5051110;28;19928;-75
2022/03/27 00:32:11;;;;;;;;;;;8.10;99.90;;;;;;5055338;28;19925;-75
2022/03/27 00:34:38;;;;;;;;;;;8.00;99.90;;;;;;5055148;28;19919;-79
2022/03/27 00:37:04;;;;;;;;;;;8.00;99.90;;;;;;5017921;28;19964;-75
2022/03/27 00:39:29;;;;;;;;;;;7.90;99.90;;;;;;5044625;28;20312;-75
2022/03/27 00:41:55;;;;;;;;;;;7.90;99.90;;;;;;5055091;28;19920;-74
2022/03/27 00:44:21;;;;;;;;;;;7.90;99.90;;;;;;5054991;28;19913;-74
2022/03/27 00:46:46;;;;;;;;;;;7.90;99.90;;;;;;5054691;28;19924;-75
2022/03/27 00:49:12;;;;;;;;;;;7.90;99.90;;;;;;5052863;28;19924;-75
2022/03/27 00:51:37;;;;;;;;;;;7.90;99.90;;;;;;5029487;28;19924;-74
2022/03/27 00:54:04;;;;;;;;;;;7.90;99.90;;;;;;5047720;28;19919;-75
2022/03/27 00:56:30;;;;;;;;;;;7.80;99.90;;;;;;5037324;28;20263;-75
2022/03/27 00:58:55;;;;;;;;;;;7.80;99.90;;;;;;5037494;28;19928;-75
2022/03/27 01:01:25;;;;;;;;;;;7.70;99.90;;;;;;5055171;28;19944;-78
2022/03/27 01:03:54;;;;;;;;;;;7.60;99.90;;;;;;5036873;28;19913;-75
2022/03/27 01:06:30;;;;;;;;;;;7.60;99.90;;;;;;5037225;28;20027;-76
2022/03/27 01:11:41;;;;;;;;;;;7.60;99.90;;;;;;5051593;28;19920;-74
2022/03/27 01:14:06;;;;;;;;;;;7.60;99.90;;;;;;5058232;28;20231;-74
2022/03/27 01:16:40;;;;;;;;;;;7.60;99.90;;;;;;5053038;28;19940;-75
2022/03/27 01:19:06;;;;;;;;;;;7.60;99.90;;;;;;5020187;28;19962;-75
2022/03/27 01:21:34;;;;;;;;;;;7.70;99.90;;;;;;5044298;28;20247;-75
2022/03/27 01:23:59;;;;;;;;;;;7.60;99.90;;;;;;5032646;28;19963;-75
2022/03/27 01:26:25;;;;;;;;;;;7.60;99.90;;;;;;5058303;28;19952;-74
2022/03/27 01:28:51;;;;;;;;;;;7.50;99.90;;;;;;5043855;28;19921;-74
2022/03/27 01:31:17;;;;;;;;;;;7.50;99.90;;;;;;5049210;28;19940;-74
2022/03/27 01:33:42;;;;;;;;;;;7.50;99.90;;;;;;5047146;28;19946;-74
2022/03/27 01:36:08;;;;;;;;;;;7.50;99.90;;;;;;5057512;28;20007;-75
2022/03/27 01:38:34;;;;;;;;;;;7.50;99.90;;;;;;5058368;28;20002;-74
2022/03/27 01:41:00;;;;;;;;;;;7.50;99.90;;;;;;5055983;28;19913;-78
2022/03/27 01:43:25;;;;;;;;;;;7.60;99.90;;;;;;5043266;28;19971;-75
2022/03/27 01:45:51;;;;;;;;;;;7.60;99.90;;;;;;5058253;28;19977;-74
2022/03/27 01:48:17;;;;;;;;;;;7.60;99.90;;;;;;5040579;28;19948;-76
2022/03/27 01:50:42;;;;;;;;;;;7.60;99.90;;;;;;5056396;28;19916;-76
2022/03/27 01:53:08;;;;;;;;;;;7.70;99.90;;;;;;5056783;28;19913;-76
2022/03/27 01:55:33;;;;;;;;;;;7.60;99.90;;;;;;5058325;28;19917;-74
2022/03/27 01:57:59;;;;;;;;;;;7.60;99.90;;;;;;5039840;28;19999;-75
2022/03/27 02:00:25;;;;;;;;;;;7.60;99.90;;;;;;5057983;28;19913;-76
2022/03/27 02:02:52;;;;;;;;;;;7.70;99.90;;;;;;5057704;28;20008;-75
2022/03/27 02:05:18;;;;;;;;;;;7.60;99.90;;;;;;5056268;28;20338;-75
2022/03/27 02:07:45;;;;;;;;;;;7.50;99.90;;;;;;5050156;28;19913;-75
2022/03/27 02:10:11;;;;;;;;;;;7.60;99.90;;;;;;5038691;28;19971;-75
2022/03/27 02:12:37;;;;;;;;;;;7.50;99.90;;;;;;5039810;28;19923;-75
2022/03/27 02:15:06;;;;;;;;;;;7.50;99.90;;;;;;5057794;28;20007;-75
2022/03/27 02:17:36;;;;;;;;;;;7.40;99.90;;;;;;5052887;28;19940;-75
2022/03/27 02:20:01;;;;;;;;;;;7.40;99.90;;;;;;5037178;28;19916;-75
2022/03/27 02:22:27;;;;;;;;;;;7.40;99.90;;;;;;5053429;28;19923;-76
2022/03/27 02:24:52;;;;;;;;;;;7.40;99.90;;;;;;5056341;28;19913;-76
2022/03/27 02:27:18;;;;;;;;;;;7.40;99.90;;;;;;5038731;28;19913;-75
2022/03/27 02:29:43;;;;;;;;;;;7.40;99.90;;;;;;5019427;28;20012;-76
2022/03/27 02:32:10;;;;;;;;;;;7.40;99.90;;;;;;5056861;28;19956;-75
2022/03/27 02:34:36;;;;;;;;;;;7.40;99.90;;;;;;5039706;28;19913;-76
2022/03/27 02:37:02;;;;;;;;;;;7.40;99.90;;;;;;5056980;28;20209;-75
2022/03/27 02:39:27;;;;;;;;;;;7.40;99.90;;;;;;5053198;28;19913;-76
2022/03/27 02:41:53;;;;;;;;;;;7.40;99.90;;;;;;5029494;28;19920;-76
2022/03/27 02:44:20;;;;;;;;;;;7.40;99.90;;;;;;5052578;28;20028;-75
2022/03/27 02:46:46;;;;;;;;;;;7.40;99.90;;;;;;5038259;28;19944;-74
2022/03/27 02:49:11;;;;;;;;;;;7.40;99.90;;;;;;5037317;28;19956;-75
2022/03/27 02:51:37;;;;;;;;;;;7.40;99.90;;;;;;5057184;28;19913;-76
2022/03/27 02:54:04;;;;;;;;;;;7.40;99.90;;;;;;5056460;28;19912;-75
2022/03/27 02:56:29;;;;;;;;;;;7.40;99.90;;;;;;5036130;28;19913;-80
2022/03/27 02:58:55;;;;;;;;;;;7.40;99.90;;;;;;5057161;28;20353;-75
2022/03/27 03:01:21;;;;;;;;;;;7.40;99.90;;;;;;5055163;28;19958;-75
2022/03/27 03:03:46;;;;;;;;;;;7.40;99.90;;;;;;5056488;28;20300;-75
2022/03/27 03:06:12;;;;;;;;;;;7.30;99.90;;;;;;5038795;28;19974;-75
2022/03/27 03:08:38;;;;;;;;;;;7.30;99.90;;;;;;5054377;28;19917;-76
2022/03/27 03:11:04;;;;;;;;;;;7.20;99.90;;;;;;5020894;28;19987;-75
2022/03/27 03:13:30;;;;;;;;;;;7.20;99.90;;;;;;5020014;28;20304;-74
2022/03/27 03:15:55;;;;;;;;;;;7.10;99.90;;;;;;5038650;28;19912;-75
2022/03/27 03:18:21;;;;;;;;;;;7.10;99.90;;;;;;5038699;28;20318;-74
2022/03/27 03:20:47;;;;;;;;;;;7.00;99.90;;;;;;5038137;28;19923;-75
2022/03/27 03:23:12;;;;;;;;;;;6.90;99.90;;;;;;5050707;28;19920;-74
2022/03/27 03:25:39;;;;;;;;;;;6.80;99.90;;;;;;5056082;28;19913;-79
2022/03/27 03:28:04;;;;;;;;;;;6.80;99.90;;;;;;5038308;28;19921;-75
2022/03/27 03:30:30;;;;;;;;;;;6.90;99.90;;;;;;5040216;28;20335;-75
2022/03/27 03:32:55;;;;;;;;;;;6.90;99.90;;;;;;5052159;28;20000;-74
2022/03/27 03:35:21;;;;;;;;;;;6.90;99.90;;;;;;5055200;28;20011;-74
2022/03/27 03:37:47;;;;;;;;;;;7.00;99.90;;;;;;5055816;28;20304;-75
2022/03/27 03:40:14;;;;;;;;;;;6.90;99.90;;;;;;5056386;28;20012;-75
2022/03/27 03:42:40;;;;;;;;;;;6.90;99.90;;;;;;5054391;28;19948;-74
2022/03/27 03:45:06;;;;;;;;;;;7.00;99.90;;;;;;5052966;28;19925;-75
2022/03/27 03:47:31;;;;;;;;;;;6.90;99.90;;;;;;5033266;28;20282;-76
2022/03/27 03:49:57;;;;;;;;;;;7.00;99.90;;;;;;5038042;28;20208;-75
2022/03/27 03:52:22;;;;;;;;;;;7.00;99.90;;;;;;5055999;28;19912;-75
2022/03/27 03:54:48;;;;;;;;;;;6.90;99.90;;;;;;5042259;28;19917;-75
2022/03/27 03:57:14;;;;;;;;;;;6.90;99.90;;;;;;5037891;28;19958;-76
2022/03/27 03:59:41;;;;;;;;;;;6.90;99.90;;;;;;5042293;28;20204;-74
2022/03/27 04:02:07;;;;;;;;;;;6.70;99.90;;;;;;5055960;28;20239;-75
2022/03/27 04:04:34;;;;;;;;;;;6.60;99.90;;;;;;5055753;28;19928;-74
2022/03/27 04:06:59;;;;;;;;;;;6.50;99.90;;;;;;5055199;28;19919;-74
2022/03/27 04:09:26;;;;;;;;;;;6.50;99.90;;;;;;5038076;28;19991;-78
2022/03/27 04:11:51;;;;;;;;;;;6.40;99.90;;;;;;5055063;28;19916;-75
2022/03/27 04:14:17;;;;;;;;;;;6.30;99.90;;;;;;5055402;28;19927;-75
2022/03/27 04:16:44;;;;;;;;;;;6.30;99.90;;;;;;5034257;28;19966;-75
2022/03/27 04:19:11;;;;;;;;;;;6.30;99.90;;;;;;5055512;28;20308;-75
2022/03/27 04:21:37;;;;;;;;;;;6.20;99.90;;;;;;5055339;28;19921;-75
2022/03/27 04:24:03;;;;;;;;;;;6.30;99.90;;;;;;5055063;28;19999;-75
2022/03/27 04:26:28;;;;;;;;;;;6.30;99.90;;;;;;5048020;28;19964;-78
2022/03/27 04:28:54;;;;;;;;;;;6.30;99.90;;;;;;5049891;28;20354;-73
2022/03/27 04:31:19;;;;;;;;;;;6.30;99.90;;;;;;5037425;28;19917;-74
2022/03/27 04:33:45;;;;;;;;;;;6.30;99.90;;;;;;5055373;28;19909;-74
2022/03/27 04:36:11;;;;;;;;;;;6.30;99.90;;;;;;5018403;28;20625;-75
2022/03/27 04:38:36;;;;;;;;;;;6.30;99.90;;;;;;5055399;28;19917;-75
2022/03/27 04:41:03;;;;;;;;;;;6.20;99.90;;;;;;5055349;28;20275;-74
2022/03/27 04:43:29;;;;;;;;;;;6.20;99.90;;;;;;5055094;28;19921;-74
2022/03/27 04:45:54;;;;;;;;;;;6.20;99.90;;;;;;5038737;28;20011;-74
2022/03/27 04:48:20;;;;;;;;;;;6.20;99.90;;;;;;5045659;28;20003;-74
2022/03/27 04:50:46;;;;;;;;;;;6.10;99.90;;;;;;5058076;28;19917;-74
2022/03/27 04:53:11;;;;;;;;;;;6.00;99.90;;;;;;5040982;28;19912;-79
2022/03/27 04:55:37;;;;;;;;;;;6.00;99.90;;;;;;5058941;28;19936;-75
2022/03/27 04:58:02;;;;;;;;;;;5.90;99.90;;;;;;5057880;28;20193;-74
2022/03/27 05:00:28;;;;;;;;;;;5.80;99.90;;;;;;5050504;28;20058;-75
2022/03/27 05:02:54;;;;;;;;;;;5.80;99.90;;;;;;5059469;28;19909;-75
2022/03/27 05:05:20;;;;;;;;;;;5.80;99.90;;;;;;5059082;28;19909;-74
2022/03/27 05:07:45;;;;;;;;;;;5.80;99.90;;;;;;5059026;28;19912;-75
2022/03/27 05:10:12;;;;;;;;;;;5.70;99.90;;;;;;5030790;28;20201;-79
2022/03/27 05:12:38;;;;;;;;;;;5.70;99.90;;;;;;5057186;28;21146;-74
2022/03/27 05:15:04;;;;;;;;;;;5.80;99.90;;;;;;5058929;28;19975;-74
2022/03/27 05:17:29;;;;;;;;;;;5.80;99.90;;;;;;5058321;28;19956;-75
2022/03/27 05:19:55;;;;;;;;;;;5.80;99.90;;;;;;5058793;28;20196;-76
2022/03/27 05:22:20;;;;;;;;;;;5.80;99.90;;;;;;5057972;28;20015;-74
2022/03/27 05:24:47;;;;;;;;;;;5.80;99.90;;;;;;5058474;28;19939;-74
2022/03/27 05:27:16;;;;;;;;;;;5.80;99.90;;;;;;5058512;28;19917;-76
2022/03/27 05:29:41;;;;;;;;;;;5.80;99.90;;;;;;5054785;28;19986;-79
2022/03/27 05:32:07;;;;;;;;;;;5.70;99.90;;;;;;5037091;28;19952;-74
2022/03/27 05:34:32;;;;;;;;;;;5.70;99.90;;;;;;5053482;28;19968;-77
2022/03/27 05:36:58;;;;;;;;;;;5.70;99.90;;;;;;5049798;28;19919;-76
2022/03/27 05:39:23;;;;;;;;;;;5.70;99.90;;;;;;5055002;28;19945;-74
2022/03/27 05:41:49;;;;;;;;;;;5.60;99.90;;;;;;5053747;28;19920;-74
2022/03/27 05:44:15;;;;;;;;;;;5.60;99.90;;;;;;5044448;28;19974;-74
2022/03/27 05:46:40;;;;;;;;;;;5.60;99.90;;;;;;5053950;28;19928;-74
2022/03/27 05:49:06;;;;;;;;;;;5.50;99.90;;;;;;5048552;28;19917;-74
2022/03/27 05:51:31;;;;;;;;;;;5.50;99.90;;;;;;5052221;28;19975;-74
2022/03/27 05:53:58;;;;;;;;;;;5.40;99.90;;;;;;5048503;28;19999;-75
2022/03/27 05:56:24;;;;;;;;;;;5.40;99.90;;;;;;5055315;28;20024;-73
2022/03/27 05:58:49;;;;;;;;;;;5.30;99.90;;;;;;5034784;28;20343;-74
2022/03/27 06:01:15;;;;;;;;;;;5.30;99.90;;;;;;5043949;28;19913;-74
2022/03/27 06:03:41;;;;;;;;;;;5.30;99.90;;;;;;5046358;28;19917;-76
2022/03/27 06:06:06;;;;;;;;;;;5.30;99.90;;;;;;5049035;28;19917;-75
2022/03/27 06:08:32;;;;;;;;;;;5.40;99.90;;;;;;5048711;28;19939;-75
2022/03/27 06:10:57;;;;;;;;;;;5.40;99.90;;;;;;5049022;28;19917;-78
2022/03/27 06:13:23;;;;;;;;;;;5.50;99.90;;;;;;5038105;28;19913;-75
2022/03/27 06:15:50;;;;;;;;;;;5.70;99.90;;;;;;5057668;28;20212;-75
2022/03/27 06:18:16;;;;;;;;;;;5.80;99.90;;;;;;5041427;28;20051;-75
2022/03/27 06:20:41;;;;;;;;;;;5.90;99.90;;;;;;5033355;28;20334;-79
2022/03/27 06:23:07;;;;;;;;;;;5.90;99.90;;;;;;5057143;28;20319;-75
2022/03/27 06:25:33;;;;;;;;;;;6.00;99.90;;;;;;5033916;28;19913;-75
2022/03/27 06:27:59;;;;;;;;;;;6.00;99.90;;;;;;5043363;28;20004;-75
2022/03/27 06:30:27;;;;;;;;;;;6.00;99.90;;;;;;5048992;28;19928;-76
2022/03/27 06:32:52;;;;;;;;;;;6.00;99.90;;;;;;5047559;28;19916;-75
2022/03/27 06:35:19;;;;;;;;;;;6.00;99.90;;;;;;5029494;28;19913;-75
2022/03/27 06:37:45;;;;;;;;;;;6.10;99.90;;;;;;5040833;28;19999;-75
2022/03/27 06:40:12;;;;;;;;;;;6.20;99.90;;;;;;5057028;28;20259;-76
2022/03/27 06:42:39;;;;;;;;;;;6.30;99.90;;;;;;5035855;28;19913;-76
2022/03/27 06:45:05;;;;;;;;;;;6.40;99.90;;;;;;5030421;28;19944;-75
2022/03/27 06:47:30;;;;;;;;;;;6.40;99.90;;;;;;5032301;28;19967;-75
2022/03/27 06:49:57;;;;;;;;;;;6.40;99.90;;;;;;5050056;28;20008;-73
2022/03/27 06:52:23;;;;;;;;;;;6.60;99.90;;;;;;5046976;28;19917;-75
2022/03/27 06:54:49;;;;;;;;;;;6.60;99.90;;;;;;5029447;28;19921;-81
2022/03/27 06:57:15;;;;;;;;;;;7.10;99.90;;;;;;5047341;28;19920;-76
2022/03/27 07:05:09;;;;;;;;;;;9.00;99.90;;;;;;5046342;28;20354;-76
2022/03/27 07:07:36;;;;;;;;;;;9.30;99.90;;;;;;5028319;28;19913;-76
2022/03/27 07:10:02;;;;;;;;;;;9.10;99.90;;;;;;5048379;28;19927;-75
2022/03/27 07:12:27;;;;;;;;;;;9.50;99.90;;;;;;5033383;28;19920;-80
2022/03/27 07:14:53;;;;;;;;;;;9.80;99.90;;;;;;5051991;28;20259;-76
2022/03/27 07:17:19;;;;;;;;;;;9.90;99.90;;;;;;5050478;28;20303;-77
2022/03/27 07:19:44;;;;;;;;;;;9.50;99.90;;;;;;5049995;28;19995;-76
2022/03/27 07:22:10;;;;;;;;;;;9.10;99.90;;;;;;5054640;28;19921;-78
2022/03/27 07:24:36;;;;;;;;;;;8.50;99.90;;;;;;5052773;28;20011;-75
2022/03/27 07:27:02;;;;;;;;;;;8.20;99.90;;;;;;5028867;28;20224;-75
2022/03/27 07:29:30;;;;;;;;;;;8.50;99.90;;;;;;5050463;28;20315;-77
2022/03/27 07:31:56;;;;;;;;;;;8.70;99.90;;;;;;5036188;28;20312;-76
2022/03/27 07:34:21;;;;;;;;;;;9.50;99.90;;;;;;5053816;28;19917;-79
2022/03/27 07:36:47;;;;;;;;;;;9.60;99.90;;;;;;5050740;28;19913;-76
2022/03/27 07:39:13;;;;;;;;;;;9.70;99.90;;;;;;5035835;28;19913;-75
2022/03/27 07:41:39;;;;;;;;;;;9.50;99.90;;;;;;5036213;28;19995;-76
2022/03/27 07:44:05;;;;;;;;;;;9.30;99.90;;;;;;5052493;28;20016;-75
2022/03/27 07:46:31;;;;;;;;;;;9.10;99.90;;;;;;5052006;28;19966;-79
2022/03/27 07:48:56;;;;;;;;;;;9.10;99.90;;;;;;5052334;28;20348;-76
2022/03/27 07:51:22;;;;;;;;;;;9.20;99.90;;;;;;5048979;28;20215;-78
2022/03/27 07:53:47;;;;;;;;;;;9.60;99.90;;;;;;5035201;28;19999;-75
2022/03/27 07:56:13;;;;;;;;;;;9.20;99.90;;;;;;5032453;28;19913;-74
2022/03/27 07:58:39;;;;;;;;;;;8.90;99.90;;;;;;5048664;28;19913;-75
2022/03/27 08:01:05;;;;;;;;;;;8.80;99.90;;;;;;5035286;28;20269;-74
2022/03/27 08:03:33;;;;;;;;;;;9.00;99.90;;;;;;5050202;28;20024;-74
2022/03/27 08:06:00;;;;;;;;;;;9.30;99.90;;;;;;5035307;28;19923;-77
2022/03/27 08:08:26;;;;;;;;;;;9.30;99.90;;;;;;5033897;28;19921;-79
2022/03/27 08:10:51;;;;;;;;;;;9.70;99.90;;;;;;5053253;28;20369;-75
2022/03/27 08:13:17;;;;;;;;;;;10.00;99.90;;;;;;5053242;28;20027;-76
2022/03/27 08:15:43;;;;;;;;;;;9.90;99.90;;;;;;5036224;28;20015;-76
2022/03/27 08:18:12;;;;;;;;;;;9.70;99.90;;;;;;5048948;28;19913;-75
2022/03/27 08:20:39;;;;;;;;;;;9.60;99.90;;;;;;5049247;28;19913;-76
2022/03/27 08:23:04;;;;;;;;;;;9.80;99.90;;;;;;5051308;28;19944;-74
2022/03/27 08:28:15;;;;;;;;;;;9.40;99.90;;;;;;5051591;28;19920;-75
2022/03/27 08:30:40;;;;;;;;;;;9.40;99.90;;;;;;5050447;28;19960;-75
2022/03/27 08:33:09;;;;;;;;;;;9.20;99.90;;;;;;5052000;28;20218;-80
2022/03/27 08:35:34;;;;;;;;;;;9.10;99.90;;;;;;5052590;28;19921;-75
2022/03/27 08:38:00;;;;;;;;;;;8.90;99.90;;;;;;5053781;28;19952;-75
2022/03/27 08:40:26;;;;;;;;;;;9.00;99.90;;;;;;5034946;28;19928;-78
2022/03/27 08:42:52;;;;;;;;;;;9.30;99.90;;;;;;5050587;28;20004;-76
2022/03/27 08:45:18;;;;;;;;;;;9.30;99.90;;;;;;5033488;28;19921;-76
2022/03/27 08:47:43;;;;;;;;;;;9.40;99.90;;;;;;5050600;28;19913;-78
2022/03/27 08:50:13;;;;;;;;;;;9.40;99.90;;;;;;5052233;28;19917;-76
2022/03/27 08:52:41;;;;;;;;;;;9.60;99.90;;;;;;5018357;28;19933;-75
2022/03/27 08:55:09;;;;;;;;;;;9.70;99.90;;;;;;5034619;28;19924;-75
2022/03/27 08:57:37;;;;;;;;;;;9.50;99.90;;;;;;5050983;28;19916;-78
2022/03/27 09:00:04;;;;;;;;;;;9.70;99.90;;;;;;5051803;28;20277;-77
2022/03/27 09:02:29;;;;;;;;;;;10.00;99.90;;;;;;5048058;28;19959;-75
2022/03/27 09:04:56;;;;;;;;;;;10.20;99.90;;;;;;5053832;28;19940;-75
2022/03/27 09:07:28;;;;;;;;;;;10.10;99.90;;;;;;5034499;28;19923;-78
2022/03/27 09:09:54;;;;;;;;;;;10.00;99.90;;;;;;5048738;28;19932;-75
2022/03/27 09:12:20;;;;;;;;;;;10.30;99.90;;;;;;5031994;28;19921;-80
2022/03/27 09:14:46;;;;;;;;;;;10.40;99.90;;;;;;5030497;28;19913;-76
2022/03/27 09:17:12;;;;;;;;;;;10.60;99.90;;;;;;5030400;28;19971;-78
2022/03/27 09:19:39;;;;;;;;;;;10.80;99.90;;;;;;5031344;28;19913;-76
2022/03/27 09:22:16;;;;;;;;;;;10.60;99.90;;;;;;5023325;28;19913;-75
2022/03/27 09:24:42;;;;;;;;;;;10.60;99.90;;;;;;5037647;28;20008;-76
2022/03/27 09:27:08;;;;;;;;;;;10.40;99.90;;;;;;5046445;28;19913;-75
2022/03/27 09:29:54;;;;;;;;;;;10.70;99.90;;;;;;5030240;28;19944;-75
2022/03/27 09:32:30;;;;;;;;;;;10.70;99.90;;;;;;5047224;28;19912;-76
2022/03/27 09:35:02;;;;;;;;;;;10.70;99.90;;;;;;5039997;28;20369;-76
2022/03/27 09:37:35;;;;;;;;;;;10.80;99.90;;;;;;5034503;28;20296;-77
2022/03/27 09:40:02;;;;;;;;;;;10.80;99.90;;;;;;5021331;28;20236;-75
2022/03/27 09:42:28;;;;;;;;;;;11.00;99.90;;;;;;5057799;28;20258;-75
2022/03/27 09:45:10;;;;;;;;;;;11.10;99.90;;;;;;5048423;28;19914;-78
2022/03/27 09:47:36;;;;;;;;;;;11.20;99.90;;;;;;5033462;28;20196;-77
2022/03/27 09:50:01;;;;;;;;;;;11.40;99.90;;;;;;5048104;28;19974;-77
2022/03/27 09:52:27;;;;;;;;;;;11.60;99.90;;;;;;5056318;28;19950;-75
2022/03/27 09:54:53;;;;;;;;;;;11.30;99.90;;;;;;5049420;28;19921;-76
2022/03/27 09:57:20;;;;;;;;;;;11.50;99.90;;;;;;5038613;28;20205;-80
2022/03/27 09:59:46;;;;;;;;;;;11.70;99.90;;;;;;5035906;28;19956;-75
2022/03/27 10:02:18;;;;;;;;;;;11.70;99.90;;;;;;5051217;28;19917;-76
2022/03/27 10:04:50;;;;;;;;;;;11.60;99.90;;;;;;5035637;28;19951;-79
2022/03/27 10:07:16;;;;;;;;;;;11.30;99.90;;;;;;5029249;28;19917;-76
2022/03/27 10:09:42;;;;;;;;;;;11.30;99.90;;;;;;5021329;28;20262;-75
2022/03/27 10:12:08;;;;;;;;;;;11.30;99.90;;;;;;5046935;28;19913;-77
2022/03/27 10:14:34;;;;;;;;;;;11.20;99.90;;;;;;5024871;28;19917;-76
2022/03/27 10:17:01;;;;;;;;;;;11.20;99.90;;;;;;5050062;28;19927;-75
2022/03/27 10:19:26;;;;;;;;;;;11.20;99.90;;;;;;5037417;28;19924;-76
2022/03/27 10:21:54;;;;;;;;;;;11.10;99.90;;;;;;5044300;28;20266;-78
2022/03/27 10:24:20;;;;;;;;;;;11.00;99.90;;;;;;5048863;28;19920;-78
2022/03/27 10:26:46;;;;;;;;;;;11.00;99.90;;;;;;5057289;28;19948;-75
2022/03/27 10:29:12;;;;;;;;;;;11.20;99.90;;;;;;5048474;28;19972;-79
2022/03/27 10:31:38;;;;;;;;;;;11.40;99.90;;;;;;5019635;28;19921;-76
2022/03/27 10:34:06;;;;;;;;;;;11.20;99.90;;;;;;5048799;28;19913;-75
2022/03/27 10:36:47;;;;;;;;;;;11.30;99.90;;;;;;5054044;28;19920;-75
2022/03/27 10:39:22;;;;;;;;;;;11.40;99.90;;;;;;5044422;28;19917;-76
2022/03/27 10:41:57;;;;;;;;;;;11.30;99.90;;;;;;5028525;28;20278;-79
2022/03/27 10:44:41;;;;;;;;;;;11.40;99.90;;;;;;5018191;28;20232;-77
2022/03/27 10:47:14;;;;;;;;;;;11.40;99.90;;;;;;5041182;28;20247;-74
2022/03/27 10:49:40;;;;;;;;;;;11.60;99.90;;;;;;5047841;28;19917;-75
2022/03/27 10:52:06;;;;;;;;;;;11.50;99.90;;;;;;5045705;28;19913;-76
2022/03/27 10:54:52;;;;;;;;;;;11.60;99.90;;;;;;5037082;28;19917;-76
2022/03/27 10:57:29;;;;;;;;;;;11.50;99.90;;;;;;5028926;28;19917;-76
2022/03/27 10:59:55;;;;;;;;;;;11.60;99.90;;;;;;5028313;28;19970;-75
2022/03/27 11:02:41;;;;;;;;;;;11.80;99.90;;;;;;5048284;28;19929;-76
2022/03/27 11:05:06;;;;;;;;;;;11.80;99.90;;;;;;5026869;28;20000;-78
2022/03/27 11:07:32;;;;;;;;;;;11.90;99.90;;;;;;5031123;28;20031;-77
2022/03/27 11:09:58;;;;;;;;;;;12.00;99.90;;;;;;5019338;28;20461;-75
2022/03/27 11:12:28;;;;;;;;;;;12.10;99.90;;;;;;5039032;28;19979;-76
2022/03/27 11:14:58;;;;;;;;;;;12.00;99.90;;;;;;5043305;28;20015;-77
2022/03/27 11:17:36;;;;;;;;;;;12.00;99.90;;;;;;5049669;28;20193;-78
2022/03/27 11:20:05;;;;;;;;;;;11.90;99.90;;;;;;5040695;28;20312;-76
2022/03/27 11:22:40;;;;;;;;;;;11.80;99.90;;;;;;5047343;28;20458;-77
2022/03/27 11:25:22;;;;;;;;;;;11.90;99.90;;;;;;5044693;28;19913;-77
2022/03/27 11:27:55;;;;;;;;;;;11.90;99.90;;;;;;5044795;28;19915;-78
2022/03/27 11:30:20;;;;;;;;;;;11.90;99.90;;;;;;5034115;28;19921;-77
2022/03/27 11:33:05;;;;;;;;;;;12.00;99.90;;;;;;5029015;28;20227;-78
2022/03/27 11:35:30;;;;;;;;;;;11.90;99.90;;;;;;5034901;28;20334;-76
2022/03/27 11:38:14;;;;;;;;;;;11.80;99.90;;;;;;5036284;28;20003;-76
2022/03/27 11:40:41;;;;;;;;;;;11.90;99.90;;;;;;5030603;28;19987;-77
2022/03/27 11:43:24;;;;;;;;;;;11.80;99.90;;;;;;5030093;28;19955;-78
2022/03/27 11:45:50;;;;;;;;;;;11.80;99.90;;;;;;5033106;28;19934;-77
2022/03/27 11:48:16;;;;;;;;;;;11.70;99.90;;;;;;5051478;28;19998;-78
2022/03/27 11:50:42;;;;;;;;;;;11.70;99.90;;;;;;5046736;28;19999;-78
2022/03/27 11:53:07;;;;;;;;;;;11.80;99.90;;;;;;5030110;28;19963;-77
2022/03/27 11:55:34;;;;;;;;;;;12.00;99.90;;;;;;5047523;28;19924;-75
2022/03/27 11:58:00;;;;;;;;;;;12.00;99.90;;;;;;5055243;28;19920;-74
2022/03/27 12:00:42;;;;;;;;;;;12.10;99.90;;;;;;5050799;28;19959;-73
2022/03/27 12:03:17;;;;;;;;;;;11.80;99.90;;;;;;5044523;28;19996;-74
2022/03/27 12:05:43;;;;;;;;;;;11.70;99.90;;;;;;5038721;28;20312;-73
2022/03/27 12:08:12;;;;;;;;;;;11.80;99.90;;;;;;5040731;28;20351;-87
2022/03/27 12:10:41;;;;;;;;;;;11.80;99.90;;;;;;5045560;28;19916;-74
2022/03/27 12:13:10;;;;;;;;;;;12.00;99.90;;;;;;5050395;28;19923;-74
2022/03/27 12:15:42;;;;;;;;;;;12.00;99.90;;;;;;5050908;28;20007;-74
2022/03/27 12:18:08;;;;;;;;;;;12.20;99.90;;;;;;5049535;28;19913;-73
2022/03/27 12:20:40;;;;;;;;;;;12.20;99.90;;;;;;5045784;28;19959;-73
2022/03/27 12:23:15;;;;;;;;;;;12.20;99.90;;;;;;5047173;28;19970;-73
2022/03/27 12:25:41;;;;;;;;;;;12.10;99.90;;;;;;5051637;28;19913;-73
2022/03/27 12:30:51;;;;;;;;;;;12.00;99.90;;;;;;5046871;28;20331;-73
2022/03/27 12:33:19;;;;;;;;;;;12.10;99.90;;;;;;5035922;28;19918;-73
2022/03/27 12:35:45;;;;;;;;;;;12.20;99.90;;;;;;5034298;28;19909;-75
2022/03/27 12:38:10;;;;;;;;;;;12.10;99.90;;;;;;5048623;28;20004;-74
2022/03/27 12:40:43;;;;;;;;;;;12.00;99.90;;;;;;5051072;28;19939;-74
2022/03/27 12:43:10;;;;;;;;;;;12.00;99.90;;;;;;5044886;28;19948;-74
2022/03/27 12:45:36;;;;;;;;;;;12.10;99.90;;;;;;5054600;28;20043;-73
2022/03/27 12:48:08;;;;;;;;;;;12.10;99.90;;;;;;5036208;28;19913;-74
2022/03/27 12:50:35;;;;;;;;;;;12.00;99.90;;;;;;5049379;28;19917;-74
2022/03/27 12:53:02;;;;;;;;;;;12.10;99.90;;;;;;5052342;28;19916;-74
2022/03/27 12:55:41;;;;;;;;;;;12.10;99.90;;;;;;5049479;28;19963;-74
2022/03/27 12:58:07;;;;;;;;;;;12.10;99.90;;;;;;5044899;28;19912;-73
2022/03/27 13:00:34;;;;;;;;;;;12.20;99.90;;;;;;5046148;28;19987;-73
2022/03/27 13:03:19;;;;;;;;;;;12.10;99.90;;;;;;5053871;28;20039;-74
2022/03/27 13:05:52;;;;;;;;;;;12.20;99.90;;;;;;5052808;28;19913;-74
2022/03/27 13:08:24;;;;;;;;;;;12.20;99.90;;;;;;5032351;28;20630;-74
2022/03/27 13:10:54;;;;;;;;;;;12.30;99.90;;;;;;5055523;28;20304;-74
2022/03/27 13:13:30;;;;;;;;;;;12.50;99.90;;;;;;5034445;28;19916;-74
2022/03/27 13:15:56;;;;;;;;;;;12.60;99.90;;;;;;5054680;28;19917;-74
2022/03/27 13:18:32;;;;;;;;;;;12.50;99.90;;;;;;5032273;28;20243;-74
2022/03/27 13:21:09;;;;;;;;;;;12.50;99.90;;;;;;5047588;28;19913;-74
2022/03/27 13:23:34;;;;;;;;;;;12.70;99.90;;;;;;5041732;28;19924;-74
2022/03/27 13:26:00;;;;;;;;;;;12.70;99.90;;;;;;5058904;28;19909;-74
2022/03/27 13:28:25;;;;;;;;;;;12.70;99.90;;;;;;5055740;28;19920;-75
2022/03/27 13:30:51;;;;;;;;;;;12.60;99.90;;;;;;5046954;28;20048;-74
2022/03/27 13:33:16;;;;;;;;;;;12.50;99.90;;;;;;5056498;28;19944;-74
2022/03/27 13:35:46;;;;;;;;;;;12.40;99.90;;;;;;5056578;28;19924;-73
2022/03/27 13:38:12;;;;;;;;;;;12.50;99.90;;;;;;5056024;28;19964;-73
2022/03/27 13:43:21;;;;;;;;;;;12.40;99.90;;;;;;5056913;28;19923;-74
2022/03/27 13:45:47;;;;;;;;;;;12.50;99.90;;;;;;5049159;28;19921;-74
2022/03/27 13:48:12;;;;;;;;;;;12.60;99.90;;;;;;5046011;28;19924;-74
2022/03/27 13:50:39;;;;;;;;;;;12.70;99.90;;;;;;5046496;28;19917;-73
2022/03/27 13:53:05;;;;;;;;;;;12.60;99.90;;;;;;5038707;28;19913;-73
2022/03/27 13:55:31;;;;;;;;;;;12.70;99.90;;;;;;5053298;28;19986;-74
2022/03/27 13:57:56;;;;;;;;;;;12.60;99.90;;;;;;5044201;28;19913;-74
2022/03/27 14:00:22;;;;;;;;;;;12.80;99.90;;;;;;5046742;28;19917;-74
2022/03/27 14:02:48;;;;;;;;;;;12.80;99.90;;;;;;5040553;28;19963;-84
2022/03/27 14:05:15;;;;;;;;;;;12.90;99.90;;;;;;5045578;28;19956;-73
2022/03/27 14:07:40;;;;;;;;;;;12.90;99.90;;;;;;5055737;28;19951;-74
2022/03/27 14:10:06;;;;;;;;;;;12.90;99.90;;;;;;5057416;28;19920;-74
2022/03/27 14:12:31;;;;;;;;;;;12.90;99.90;;;;;;5024555;28;19960;-73
2022/03/27 14:14:57;;;;;;;;;;;12.90;99.90;;;;;;5050249;28;19913;-74
2022/03/27 14:17:23;;;;;;;;;;;13.00;99.90;;;;;;5047829;28;20007;-74
2022/03/27 14:19:48;;;;;;;;;;;13.00;99.90;;;;;;5050112;28;20012;-74
2022/03/27 14:22:15;;;;;;;;;;;13.00;99.90;;;;;;5042567;28;19913;-74
2022/03/27 14:24:40;;;;;;;;;;;13.10;99.90;;;;;;5049077;28;19944;-73
2022/03/27 14:27:06;;;;;;;;;;;13.20;99.90;;;;;;5047200;28;20379;-73
2022/03/27 14:29:33;;;;;;;;;;;13.20;99.90;;;;;;5039773;28;19929;-73
2022/03/27 14:31:58;;;;;;;;;;;13.20;99.90;;;;;;5043783;28;20383;-74
2022/03/27 14:34:24;;;;;;;;;;;13.20;99.90;;;;;;5045752;28;19982;-74
2022/03/27 14:36:50;;;;;;;;;;;13.20;99.90;;;;;;5049319;28;19917;-82
2022/03/27 14:39:16;;;;;;;;;;;13.30;99.90;;;;;;5048361;28;19920;-81
2022/03/27 14:41:41;;;;;;;;;;;13.30;99.90;;;;;;5047292;28;19917;-74